Roundhead, Ohio
Current Conditions -  °F | °C
As of 11:53 PM on Wednesday 22 Oct 2014 (Local Time) from KAOH Reporting Station
Overcast Overcast  
Wind Chill:   Ceiling: 2800
Heat Index:   Visibility: 10mi
Dew Point:   Wind: 3mph
Humidity: 89%   Direction: 300°WNW
Pressure: 30.27"   Gusts: NA
Location:  40.56°N, 83.84°W
Report Text: KAOH 230353Z AUTO 30003KT 10SM OVC028 06/04 A3027 RMK AO2 SLP255 T00560039
Loading
Personal Weather Stations






























Interactive Weather Map
Tropical Storm Tracking
New forecast layout! Learn more

10-Day Weather Forecast

Advertisements
Track Severe Weather on mobile